Time;durP1;ratioP1;P1;durP2;ratioP2;P2;SDS_P1;SDS_P2;PMS_P1;PMS_P2;Temp;Humidity;BMP_temperature;BMP_pressure;BME280_temperature;BME280_humidity;BME280_pressure;Samples;Min_cycle;Max_cycle;Signal;HPM_P1;HPM_P2
2023/12/26 00:02:24;;;;;;;29.48;27.67;;;;;;;;;;5064647;28;20063;-77
2023/12/26 00:04:54;;;;;;;29.45;27.75;;;;;;;;;;5064592;28;20059;-77
2023/12/26 00:07:24;;;;;;;28.00;26.13;;;;;;;;;;5064819;28;20044;-77
2023/12/26 00:09:54;;;;;;;33.00;30.73;;;;;;;;;;5066276;28;20055;-77
2023/12/26 00:12:26;;;;;;;30.15;28.13;;;;;;;;;;5065065;28;20048;-77
2023/12/26 00:14:57;;;;;;;30.45;28.42;;;;;;;;;;5064972;28;20052;-77
2023/12/26 00:17:29;;;;;;;28.25;26.33;;;;;;;;;;5064637;28;20056;-77
2023/12/26 00:20:00;;;;;;;26.60;24.73;;;;;;;;;;5064444;28;20052;-76
2023/12/26 00:22:30;;;;;;;32.40;30.08;;;;;;;;;;5064523;28;20063;-75
2023/12/26 00:25:03;;;;;;;29.45;27.70;;;;;;;;;;5054803;28;20053;-76
2023/12/26 00:27:33;;;;;;;35.50;33.28;;;;;;;;;;5052462;28;20048;-75
2023/12/26 00:30:04;;;;;;;28.25;26.45;;;;;;;;;;5054262;28;20094;-76
2023/12/26 00:32:36;;;;;;;32.55;30.30;;;;;;;;;;5053615;28;20048;-76
2023/12/26 00:35:08;;;;;;;31.02;29.17;;;;;;;;;;5053165;28;20065;-75
2023/12/26 00:37:40;;;;;;;33.33;31.20;;;;;;;;;;5053950;28;20527;-75
2023/12/26 00:40:12;;;;;;;28.98;27.17;;;;;;;;;;5054237;28;20512;-76
2023/12/26 00:42:45;;;;;;;33.42;31.35;;;;;;;;;;5054324;28;20060;-76
2023/12/26 00:45:16;;;;;;;32.10;29.90;;;;;;;;;;5052669;28;20397;-76
2023/12/26 00:47:47;;;;;;;32.45;30.50;;;;;;;;;;5058105;28;20055;-76
2023/12/26 00:50:17;;;;;;;27.63;26.00;;;;;;;;;;5063213;28;20051;-76
2023/12/26 00:52:48;;;;;;;29.15;27.38;;;;;;;;;;5062456;28;20957;-76
2023/12/26 00:55:19;;;;;;;27.10;25.48;;;;;;;;;;5062511;28;20048;-77
2023/12/26 00:57:50;;;;;;;30.73;28.40;;;;;;;;;;5063807;28;20071;-76
2023/12/26 01:00:20;;;;;;;33.20;31.38;;;;;;;;;;5064187;28;20063;-75
2023/12/26 01:02:51;;;;;;;30.65;28.98;;;;;;;;;;5063582;28;20548;-77
2023/12/26 01:05:22;;;;;;;37.88;35.65;;;;;;;;;;5062606;28;20538;-76
2023/12/26 01:07:53;;;;;;;34.92;32.97;;;;;;;;;;5063493;28;20051;-76
2023/12/26 01:10:23;;;;;;;35.90;33.70;;;;;;;;;;5063134;28;20045;-75
2023/12/26 01:12:53;;;;;;;31.23;29.33;;;;;;;;;;5062882;28;20495;-76
2023/12/26 01:15:24;;;;;;;33.75;31.60;;;;;;;;;;5063844;28;20052;-75
2023/12/26 01:17:54;;;;;;;31.30;29.23;;;;;;;;;;5064070;28;20052;-77
2023/12/26 01:20:27;;;;;;;40.65;37.83;;;;;;;;;;5062573;28;20818;-75
2023/12/26 01:22:59;;;;;;;36.10;34.10;;;;;;;;;;5062174;28;20051;-75
2023/12/26 01:25:30;;;;;;;34.80;32.38;;;;;;;;;;5062326;28;20091;-76
2023/12/26 01:28:01;;;;;;;35.40;33.42;;;;;;;;;;5063230;28;20439;-75
2023/12/26 01:30:32;;;;;;;35.95;33.95;;;;;;;;;;5063098;28;20143;-75
2023/12/26 01:33:02;;;;;;;38.80;36.65;;;;;;;;;;5064380;28;20045;-75
2023/12/26 01:35:33;;;;;;;54.28;50.97;;;;;;;;;;5062375;28;20539;-76
2023/12/26 01:38:03;;;;;;;60.20;55.63;;;;;;;;;;5062527;28;20037;-75
2023/12/26 01:40:35;;;;;;;55.35;51.72;;;;;;;;;;5062426;28;20044;-75
2023/12/26 01:43:05;;;;;;;50.45;47.53;;;;;;;;;;5062979;28;20799;-76
2023/12/26 01:45:36;;;;;;;46.38;43.40;;;;;;;;;;5062159;28;20048;-76
2023/12/26 01:48:08;;;;;;;43.95;41.17;;;;;;;;;;5062981;28;20399;-76
2023/12/26 01:50:40;;;;;;;44.97;42.17;;;;;;;;;;5064912;28;20598;-76
2023/12/26 01:53:10;;;;;;;52.55;49.35;;;;;;;;;;5062906;28;20060;-76
2023/12/26 01:55:41;;;;;;;55.22;51.90;;;;;;;;;;5062604;28;20041;-76
2023/12/26 01:58:12;;;;;;;44.85;41.85;;;;;;;;;;5062520;28;20087;-75
2023/12/26 02:00:43;;;;;;;42.70;39.80;;;;;;;;;;5061607;28;20056;-76
2023/12/26 02:03:14;;;;;;;33.67;31.45;;;;;;;;;;5060822;28;20044;-77
2023/12/26 02:05:46;;;;;;;28.80;27.08;;;;;;;;;;5061527;28;20053;-76
2023/12/26 02:08:18;;;;;;;40.38;38.05;;;;;;;;;;5062164;28;20044;-75
2023/12/26 02:10:49;;;;;;;31.92;29.92;;;;;;;;;;5061816;28;20052;-75
2023/12/26 02:13:21;;;;;;;49.58;46.47;;;;;;;;;;5061240;28;20049;-75
2023/12/26 02:15:55;;;;;;;38.58;35.60;;;;;;;;;;5061022;28;20049;-77
2023/12/26 02:18:29;;;;;;;36.85;34.17;;;;;;;;;;5062963;28;20411;-77
2023/12/26 02:21:03;;;;;;;30.40;28.40;;;;;;;;;;5062568;28;20411;-76
2023/12/26 02:23:35;;;;;;;30.02;27.95;;;;;;;;;;5061872;28;20063;-76
2023/12/26 02:26:06;;;;;;;35.08;32.75;;;;;;;;;;5062403;28;20411;-76
2023/12/26 02:28:38;;;;;;;27.17;24.63;;;;;;;;;;5061145;28;20049;-77
2023/12/26 02:31:10;;;;;;;24.05;22.58;;;;;;;;;;5062599;28;20048;-77
2023/12/26 02:33:41;;;;;;;30.00;27.95;;;;;;;;;;5062349;28;20064;-77
2023/12/26 02:36:15;;;;;;;34.47;32.30;;;;;;;;;;5062451;28;20483;-77
2023/12/26 02:38:46;;;;;;;41.50;38.75;;;;;;;;;;5062393;28;20498;-77
2023/12/26 02:41:17;;;;;;;39.65;37.15;;;;;;;;;;5063155;28;20048;-76
2023/12/26 02:43:49;;;;;;;26.38;24.70;;;;;;;;;;5062674;28;20060;-78
2023/12/26 02:46:19;;;;;;;30.52;28.42;;;;;;;;;;5062507;28;20049;-75
2023/12/26 02:48:50;;;;;;;22.23;20.90;;;;;;;;;;5062162;28;20056;-76
2023/12/26 02:51:23;;;;;;;51.00;47.10;;;;;;;;;;5062394;28;20560;-75
2023/12/26 02:53:53;;;;;;;28.50;26.60;;;;;;;;;;5062114;28;20044;-75
2023/12/26 02:56:23;;;;;;;22.40;21.00;;;;;;;;;;5062378;28;20048;-74
2023/12/26 02:58:53;;;;;;;39.35;36.75;;;;;;;;;;5062549;28;20404;-75
2023/12/26 03:01:24;;;;;;;37.13;34.45;;;;;;;;;;5062940;28;20049;-75
2023/12/26 03:03:55;;;;;;;27.05;25.40;;;;;;;;;;5061502;28;20052;-75
2023/12/26 03:06:27;;;;;;;23.60;22.15;;;;;;;;;;5060573;28;20414;-75
2023/12/26 03:08:59;;;;;;;25.42;23.92;;;;;;;;;;5060288;28;20045;-75
2023/12/26 03:11:29;;;;;;;26.35;24.75;;;;;;;;;;5062017;28;20048;-75
2023/12/26 03:14:01;;;;;;;25.20;23.65;;;;;;;;;;5062064;28;20399;-76
2023/12/26 03:16:32;;;;;;;30.52;28.52;;;;;;;;;;5061513;28;20044;-74
2023/12/26 03:19:02;;;;;;;28.38;26.45;;;;;;;;;;5060308;28;20064;-75
2023/12/26 03:21:34;;;;;;;26.13;24.52;;;;;;;;;;5061554;28;20056;-75
2023/12/26 03:24:06;;;;;;;30.05;28.05;;;;;;;;;;5061158;28;20071;-74
2023/12/26 03:26:36;;;;;;;27.42;25.48;;;;;;;;;;5061297;28;20055;-75
2023/12/26 03:29:06;;;;;;;27.02;25.52;;;;;;;;;;5060075;28;20519;-74
2023/12/26 03:31:45;;;;;;;28.33;26.42;;;;;;;;;;5060328;28;20396;-75
2023/12/26 03:34:17;;;;;;;23.35;21.77;;;;;;;;;;5061032;28;20061;-75
2023/12/26 03:36:50;;;;;;;24.90;23.38;;;;;;;;;;5060541;28;20419;-77
2023/12/26 03:39:21;;;;;;;28.05;26.08;;;;;;;;;;5060324;28;20056;-75
2023/12/26 03:41:51;;;;;;;27.70;25.80;;;;;;;;;;5061699;28;20415;-75
2023/12/26 03:44:24;;;;;;;26.05;23.85;;;;;;;;;;5060840;28;20056;-74
2023/12/26 03:46:54;;;;;;;21.98;20.45;;;;;;;;;;5062031;28;20048;-75
2023/12/26 03:49:24;;;;;;;26.50;24.70;;;;;;;;;;5062859;28;20059;-74
2023/12/26 03:51:54;;;;;;;23.80;22.20;;;;;;;;;;5044313;28;20530;-75
2023/12/26 03:54:25;;;;;;;27.23;25.23;;;;;;;;;;5061898;28;20059;-76
2023/12/26 03:56:56;;;;;;;28.95;26.75;;;;;;;;;;5062470;28;20060;-76
2023/12/26 03:59:26;;;;;;;32.08;29.58;;;;;;;;;;5059855;28;20052;-75
2023/12/26 04:01:56;;;;;;;26.90;24.75;;;;;;;;;;5062222;28;20052;-74
2023/12/26 04:04:27;;;;;;;29.92;27.92;;;;;;;;;;5060570;28;20415;-75
2023/12/26 04:06:58;;;;;;;27.95;26.23;;;;;;;;;;5061165;28;20057;-76
2023/12/26 04:09:29;;;;;;;28.13;26.33;;;;;;;;;;5060284;28;20044;-75
2023/12/26 04:11:59;;;;;;;30.23;28.33;;;;;;;;;;5061631;28;20052;-75
2023/12/26 04:14:30;;;;;;;29.33;27.38;;;;;;;;;;5060823;28;20435;-75
2023/12/26 04:17:00;;;;;;;30.60;28.65;;;;;;;;;;5059714;28;20063;-75
2023/12/26 04:19:32;;;;;;;27.67;26.05;;;;;;;;;;5059913;28;20052;-77
2023/12/26 04:22:02;;;;;;;31.52;29.58;;;;;;;;;;5059869;28;20045;-75
2023/12/26 04:24:33;;;;;;;33.30;30.90;;;;;;;;;;5059801;28;20053;-75
2023/12/26 04:27:06;;;;;;;37.10;34.70;;;;;;;;;;5063071;28;20543;-75
2023/12/26 04:29:37;;;;;;;33.08;30.83;;;;;;;;;;5063704;28;20060;-75
2023/12/26 04:32:10;;;;;;;31.05;29.25;;;;;;;;;;5064275;28;20048;-74
2023/12/26 04:34:40;;;;;;;33.20;31.00;;;;;;;;;;5063088;28;20305;-75
2023/12/26 04:37:11;;;;;;;31.58;29.52;;;;;;;;;;5063491;28;20399;-75
2023/12/26 04:39:43;;;;;;;35.50;33.28;;;;;;;;;;5063121;28;20419;-75
2023/12/26 04:42:14;;;;;;;37.10;34.50;;;;;;;;;;5065024;28;20420;-75
2023/12/26 04:44:46;;;;;;;35.95;33.80;;;;;;;;;;5063084;28;20044;-75
2023/12/26 04:47:18;;;;;;;42.70;40.10;;;;;;;;;;5064385;28;20419;-75
2023/12/26 04:49:48;;;;;;;40.33;37.60;;;;;;;;;;5062626;28;20107;-75
2023/12/26 04:52:19;;;;;;;36.60;34.08;;;;;;;;;;5064088;28;20044;-75
2023/12/26 04:54:50;;;;;;;44.78;41.75;;;;;;;;;;5065012;28;20067;-74
2023/12/26 04:57:22;;;;;;;39.60;37.20;;;;;;;;;;5063578;28;20827;-75
2023/12/26 04:59:53;;;;;;;42.75;40.25;;;;;;;;;;5064221;28;20040;-75
2023/12/26 05:02:25;;;;;;;41.80;39.40;;;;;;;;;;5063083;28;20057;-75
2023/12/26 05:04:56;;;;;;;30.13;27.67;;;;;;;;;;5063247;28;20063;-76
2023/12/26 05:07:26;;;;;;;28.58;25.92;;;;;;;;;;5046384;28;20056;-75
2023/12/26 05:09:57;;;;;;;29.55;27.35;;;;;;;;;;5064305;28;20040;-75
2023/12/26 05:12:29;;;;;;;27.35;25.38;;;;;;;;;;5064792;28;20040;-75
2023/12/26 05:14:59;;;;;;;31.90;29.63;;;;;;;;;;5062940;28;20044;-76
2023/12/26 05:17:32;;;;;;;49.70;46.47;;;;;;;;;;5063062;28;20063;-75
2023/12/26 05:20:04;;;;;;;48.88;45.75;;;;;;;;;;5062087;28;20873;-74
2023/12/26 05:22:50;;;;;;;30.00;27.58;;;;;;;;;;5063144;28;20052;-75
2023/12/26 05:25:23;;;;;;;53.28;50.05;;;;;;;;;;5063352;28;20057;-76
2023/12/26 05:27:55;;;;;;;54.67;51.25;;;;;;;;;;5062210;28;20534;-76
2023/12/26 05:30:26;;;;;;;51.83;48.50;;;;;;;;;;5061557;28;20131;-76
2023/12/26 05:32:56;;;;;;;51.53;48.00;;;;;;;;;;5062157;28;20060;-76
2023/12/26 05:35:27;;;;;;;46.97;44.28;;;;;;;;;;5061478;28;20214;-76
2023/12/26 05:37:58;;;;;;;54.78;51.33;;;;;;;;;;5063783;28;20598;-75
2023/12/26 05:40:29;;;;;;;48.63;45.22;;;;;;;;;;5062202;28;20055;-75
2023/12/26 05:42:59;;;;;;;50.85;47.53;;;;;;;;;;5062691;28;20055;-76
2023/12/26 05:45:32;;;;;;;52.10;48.83;;;;;;;;;;5061660;28;20056;-75
2023/12/26 05:48:07;;;;;;;50.70;47.40;;;;;;;;;;5061677;28;20079;-76
2023/12/26 05:50:38;;;;;;;56.50;52.80;;;;;;;;;;5062974;28;20053;-75
2023/12/26 05:53:09;;;;;;;52.05;48.53;;;;;;;;;;5062125;28;20056;-75
2023/12/26 05:55:39;;;;;;;54.35;50.88;;;;;;;;;;5062300;28;20044;-75
2023/12/26 05:58:10;;;;;;;54.28;50.47;;;;;;;;;;5045622;28;20068;-75
2023/12/26 06:00:41;;;;;;;53.40;49.75;;;;;;;;;;5062070;28;20537;-75
2023/12/26 06:03:12;;;;;;;53.75;49.65;;;;;;;;;;5061433;28;20075;-75
2023/12/26 06:05:42;;;;;;;57.00;53.60;;;;;;;;;;5061164;28;20052;-75
2023/12/26 06:08:15;;;;;;;54.63;51.22;;;;;;;;;;5063506;28;20055;-76
2023/12/26 06:10:45;;;;;;;54.97;51.40;;;;;;;;;;5061554;28;20056;-76
2023/12/26 06:13:15;;;;;;;48.65;45.22;;;;;;;;;;5061385;28;20064;-75
2023/12/26 06:15:48;;;;;;;51.67;48.10;;;;;;;;;;5060911;28;20070;-74
2023/12/26 06:18:18;;;;;;;50.70;47.20;;;;;;;;;;5062558;28;20048;-76
2023/12/26 06:20:50;;;;;;;50.97;47.95;;;;;;;;;;5062485;28;20041;-75
2023/12/26 06:23:21;;;;;;;54.15;50.70;;;;;;;;;;5061607;28;20048;-76
2023/12/26 06:25:51;;;;;;;50.08;46.95;;;;;;;;;;5061398;28;20056;-75
2023/12/26 06:28:22;;;;;;;53.75;50.45;;;;;;;;;;5062754;28;20504;-76
2023/12/26 06:30:53;;;;;;;54.40;51.10;;;;;;;;;;5061319;28;20056;-75
2023/12/26 06:33:23;;;;;;;54.63;51.50;;;;;;;;;;5062043;28;20049;-75
2023/12/26 06:35:54;;;;;;;48.17;45.05;;;;;;;;;;5061454;28;20052;-76
2023/12/26 06:38:24;;;;;;;57.67;53.85;;;;;;;;;;5063549;28;20060;-75
2023/12/26 06:40:58;;;;;;;56.75;53.20;;;;;;;;;;5061426;28;20415;-76
2023/12/26 06:43:29;;;;;;;60.20;56.05;;;;;;;;;;5062750;28;20055;-74
2023/12/26 06:46:06;;;;;;;73.53;68.32;;;;;;;;;;5063622;28;20398;-74
2023/12/26 06:48:40;;;;;;;55.80;51.53;;;;;;;;;;5061619;28;20056;-75
2023/12/26 06:51:14;;;;;;;46.65;43.83;;;;;;;;;;5062107;28;20052;-75
2023/12/26 06:53:45;;;;;;;43.50;40.53;;;;;;;;;;5060891;28;20052;-75
2023/12/26 06:56:15;;;;;;;43.45;40.22;;;;;;;;;;5062693;28;20099;-75
2023/12/26 06:58:46;;;;;;;43.45;40.20;;;;;;;;;;5062231;28;20044;-76
2023/12/26 07:01:19;;;;;;;43.63;40.08;;;;;;;;;;5060657;28;20056;-75
2023/12/26 07:03:49;;;;;;;44.30;41.20;;;;;;;;;;5061505;28;20103;-76
2023/12/26 07:06:19;;;;;;;44.33;41.30;;;;;;;;;;5061469;28;20411;-75
2023/12/26 07:08:51;;;;;;;42.88;39.63;;;;;;;;;;5062047;28;20049;-76
2023/12/26 07:11:23;;;;;;;47.25;43.97;;;;;;;;;;5063042;28;20059;-76
2023/12/26 07:13:54;;;;;;;39.15;36.33;;;;;;;;;;5061646;28;20056;-75
2023/12/26 07:16:24;;;;;;;41.17;38.17;;;;;;;;;;5062373;28;20049;-75
2023/12/26 07:18:56;;;;;;;34.47;32.35;;;;;;;;;;5062786;28;20045;-75
2023/12/26 07:21:27;;;;;;;31.25;28.77;;;;;;;;;;5063444;28;20066;-75
2023/12/26 07:23:57;;;;;;;39.58;37.15;;;;;;;;;;5062942;28;20419;-75
2023/12/26 07:26:27;;;;;;;33.13;31.02;;;;;;;;;;5060779;28;20040;-74
2023/12/26 07:28:58;;;;;;;34.67;32.00;;;;;;;;;;5062679;28;20067;-76
2023/12/26 07:31:30;;;;;;;39.15;36.08;;;;;;;;;;5062335;28;20048;-76
2023/12/26 07:34:04;;;;;;;31.75;29.83;;;;;;;;;;5061099;28;20060;-76
2023/12/26 07:36:34;;;;;;;35.53;33.03;;;;;;;;;;5061881;28;20044;-76
2023/12/26 07:39:06;;;;;;;38.80;36.20;;;;;;;;;;5061100;28;20071;-76
2023/12/26 07:41:37;;;;;;;34.00;31.65;;;;;;;;;;5061216;28;20063;-75
2023/12/26 07:44:08;;;;;;;37.28;34.75;;;;;;;;;;5061089;28;20044;-76
2023/12/26 07:46:39;;;;;;;33.38;31.25;;;;;;;;;;5061112;28;20048;-75
2023/12/26 07:49:10;;;;;;;35.78;32.95;;;;;;;;;;5061750;28;20045;-75
2023/12/26 07:51:41;;;;;;;36.17;33.38;;;;;;;;;;5061421;28;20044;-75
2023/12/26 07:54:12;;;;;;;35.95;33.55;;;;;;;;;;5061148;28;20063;-76
2023/12/26 07:56:42;;;;;;;39.95;36.85;;;;;;;;;;5061418;28;20055;-76
2023/12/26 07:59:13;;;;;;;39.00;36.05;;;;;;;;;;5060794;28;20048;-75
2023/12/26 08:01:45;;;;;;;38.85;36.10;;;;;;;;;;5063351;28;20041;-75
2023/12/26 08:04:16;;;;;;;37.22;34.85;;;;;;;;;;5064865;28;20047;-75
2023/12/26 08:06:47;;;;;;;39.50;36.63;;;;;;;;;;5065831;28;20640;-75
2023/12/26 08:09:19;;;;;;;38.20;35.40;;;;;;;;;;5063683;28;20055;-75
2023/12/26 08:11:51;;;;;;;35.95;33.63;;;;;;;;;;5064286;28;20052;-75
2023/12/26 08:14:22;;;;;;;43.10;39.88;;;;;;;;;;5064609;28;20064;-75
2023/12/26 08:16:53;;;;;;;45.55;42.25;;;;;;;;;;5064410;28;20118;-76
2023/12/26 08:19:23;;;;;;;46.45;43.30;;;;;;;;;;5064312;28;20044;-75
2023/12/26 08:21:54;;;;;;;51.03;47.28;;;;;;;;;;5064962;28;20045;-75
2023/12/26 08:24:26;;;;;;;45.92;43.00;;;;;;;;;;5064376;28;20415;-76
2023/12/26 08:26:57;;;;;;;50.30;47.00;;;;;;;;;;5063843;28;20056;-75
2023/12/26 08:29:28;;;;;;;50.35;46.88;;;;;;;;;;5063677;28;20507;-75
2023/12/26 08:32:00;;;;;;;49.05;45.55;;;;;;;;;;5064647;28;20052;-76
2023/12/26 08:34:30;;;;;;;42.10;39.13;;;;;;;;;;5064671;28;20068;-76
2023/12/26 08:37:02;;;;;;;43.47;40.38;;;;;;;;;;5065080;28;20040;-76
2023/12/26 08:39:32;;;;;;;47.30;44.47;;;;;;;;;;5064651;28;20051;-74
2023/12/26 08:42:03;;;;;;;43.50;40.70;;;;;;;;;;5064590;28;20860;-75
2023/12/26 08:44:35;;;;;;;49.05;45.53;;;;;;;;;;5064221;28;20071;-75
2023/12/26 08:47:06;;;;;;;43.45;40.72;;;;;;;;;;5063806;28;20044;-75
2023/12/26 08:49:36;;;;;;;44.75;42.13;;;;;;;;;;5064242;28;20771;-76
2023/12/26 08:52:06;;;;;;;50.17;46.97;;;;;;;;;;5062951;28;20076;-75
2023/12/26 08:54:38;;;;;;;55.38;51.55;;;;;;;;;;5064140;28;20068;-76
2023/12/26 08:57:09;;;;;;;42.85;40.15;;;;;;;;;;5063859;28;20044;-75
2023/12/26 08:59:39;;;;;;;42.75;40.05;;;;;;;;;;5063865;28;20032;-77
2023/12/26 09:02:09;;;;;;;45.60;42.47;;;;;;;;;;5063670;28;20052;-75
2023/12/26 09:04:40;;;;;;;43.33;40.33;;;;;;;;;;5064737;28;20032;-80
2023/12/26 09:07:11;;;;;;;47.25;43.97;;;;;;;;;;5064268;28;20051;-76
2023/12/26 09:09:42;;;;;;;43.92;41.17;;;;;;;;;;5063593;28;20047;-74
2023/12/26 09:12:12;;;;;;;46.00;42.55;;;;;;;;;;5064494;28;20040;-74
2023/12/26 09:14:42;;;;;;;50.97;47.50;;;;;;;;;;5062597;28;20045;-75
2023/12/26 09:17:14;;;;;;;46.78;43.60;;;;;;;;;;5063598;28;20063;-74
2023/12/26 09:19:46;;;;;;;40.00;37.63;;;;;;;;;;5063681;28;20427;-75
2023/12/26 09:22:17;;;;;;;48.35;44.80;;;;;;;;;;5065590;28;20533;-75
2023/12/26 09:24:47;;;;;;;44.72;42.05;;;;;;;;;;5065218;28;20392;-74
2023/12/26 09:27:19;;;;;;;42.58;39.55;;;;;;;;;;5066358;28;20613;-73
2023/12/26 09:29:50;;;;;;;46.67;43.80;;;;;;;;;;5064853;28;20482;-76
2023/12/26 09:32:27;;;;;;;43.67;40.65;;;;;;;;;;5075379;28;20055;-75
2023/12/26 09:34:58;;;;;;;42.80;39.67;;;;;;;;;;5073504;28;20052;-80
2023/12/26 09:37:35;;;;;;;42.67;39.78;;;;;;;;;;5068563;28;20534;-77
2023/12/26 09:40:12;;;;;;;41.28;38.28;;;;;;;;;;5071334;28;20052;-76
2023/12/26 09:42:47;;;;;;;36.22;33.95;;;;;;;;;;5066656;28;20063;-76
2023/12/26 09:45:20;;;;;;;36.97;34.20;;;;;;;;;;5068819;28;20052;-74
2023/12/26 09:47:51;;;;;;;41.50;38.40;;;;;;;;;;5065603;28;20059;-74
2023/12/26 09:50:23;;;;;;;33.75;31.17;;;;;;;;;;5069721;28;20045;-75
2023/12/26 09:52:58;;;;;;;31.58;29.50;;;;;;;;;;5065342;28;20040;-75
2023/12/26 09:55:29;;;;;;;28.65;26.50;;;;;;;;;;5063746;28;20044;-75
2023/12/26 09:58:01;;;;;;;28.40;26.15;;;;;;;;;;5063520;28;20515;-75
2023/12/26 10:00:32;;;;;;;27.73;25.90;;;;;;;;;;5064877;28;20044;-75
2023/12/26 10:03:03;;;;;;;25.38;23.60;;;;;;;;;;5062631;28;20605;-75
2023/12/26 10:05:35;;;;;;;23.77;22.30;;;;;;;;;;5062729;28;20067;-75
2023/12/26 10:08:06;;;;;;;31.77;29.20;;;;;;;;;;5061585;28;20048;-75
2023/12/26 10:10:37;;;;;;;26.08;24.02;;;;;;;;;;5062057;28;20048;-77
2023/12/26 10:13:07;;;;;;;25.33;23.45;;;;;;;;;;5060851;28;20060;-75
2023/12/26 10:15:41;;;;;;;24.00;21.95;;;;;;;;;;5062852;28;20403;-75
2023/12/26 10:18:12;;;;;;;29.83;27.63;;;;;;;;;;5063845;28;20048;-75
2023/12/26 10:20:43;;;;;;;25.95;23.92;;;;;;;;;;5061986;28;20060;-75
2023/12/26 10:23:14;;;;;;;26.25;24.27;;;;;;;;;;5062822;28;20053;-83
2023/12/26 10:25:44;;;;;;;19.75;18.27;;;;;;;;;;5062130;28;20431;-74
2023/12/26 10:28:18;;;;;;;29.42;27.00;;;;;;;;;;5063673;28;20071;-74
2023/12/26 10:30:50;;;;;;;21.52;19.98;;;;;;;;;;5061834;28;20471;-75
2023/12/26 10:33:28;;;;;;;22.00;20.25;;;;;;;;;;5062972;28;20051;-76
2023/12/26 10:36:06;;;;;;;22.73;21.05;;;;;;;;;;5062948;28;20056;-74
2023/12/26 10:38:39;;;;;;;20.92;19.40;;;;;;;;;;5063823;28;20518;-74
2023/12/26 10:41:24;;;;;;;31.13;28.52;;;;;;;;;;5062402;28;20052;-76
2023/12/26 10:43:58;;;;;;;37.45;34.33;;;;;;;;;;5060674;28;20655;-75
2023/12/26 10:46:30;;;;;;;31.80;29.65;;;;;;;;;;5061057;28;20060;-74
2023/12/26 10:49:06;;;;;;;14.73;13.40;;;;;;;;;;5062538;28;20060;-74
2023/12/26 10:51:46;;;;;;;27.73;25.85;;;;;;;;;;5061031;28;20400;-75
2023/12/26 10:54:26;;;;;;;27.83;25.83;;;;;;;;;;5062704;28;20049;-75
2023/12/26 10:56:59;;;;;;;25.23;23.60;;;;;;;;;;5061471;28;20053;-76
2023/12/26 13:54:29;;;;;;;20.42;18.75;;;;;;;;;;5066361;28;20435;-73
2023/12/26 13:57:37;;;;;;;21.85;20.48;;;;;;;;;;5064283;28;20057;-77
2023/12/26 14:00:44;;;;;;;16.90;15.77;;;;;;;;;;5061206;28;20044;-76
2023/12/26 14:03:51;;;;;;;37.80;35.15;;;;;;;;;;5062556;28;20040;-76
2023/12/26 14:07:00;;;;;;;14.63;13.60;;;;;;;;;;5062820;28;20514;-77
2023/12/26 14:10:08;;;;;;;21.13;19.48;;;;;;;;;;5062583;28;20055;-76
2023/12/26 14:13:15;;;;;;;11.73;10.88;;;;;;;;;;5062503;28;20047;-76
2023/12/26 14:16:23;;;;;;;11.43;10.52;;;;;;;;;;5062618;28;20056;-75
2023/12/26 14:18:54;;;;;;;37.13;34.42;;;;;;;;;;5062587;28;20045;-76
2023/12/26 14:21:25;;;;;;;11.40;10.40;;;;;;;;;;5062926;28;20507;-78
2023/12/26 14:23:55;;;;;;;12.18;11.38;;;;;;;;;;5062057;28;20052;-74
2023/12/26 14:26:28;;;;;;;11.52;10.70;;;;;;;;;;5062380;28;20581;-75
2023/12/26 14:28:59;;;;;;;13.20;12.27;;;;;;;;;;5062220;28;20530;-76
2023/12/26 14:32:06;;;;;;;21.10;19.65;;;;;;;;;;5061689;28;20052;-75
2023/12/26 14:34:37;;;;;;;12.20;11.50;;;;;;;;;;5061549;28;20060;-74
2023/12/26 14:37:07;;;;;;;13.20;12.40;;;;;;;;;;5061727;28;20051;-75
2023/12/26 14:39:38;;;;;;;14.13;13.20;;;;;;;;;;5061902;28;20040;-76
2023/12/26 14:42:09;;;;;;;22.00;20.48;;;;;;;;;;5061630;28;20040;-76
2023/12/26 14:44:39;;;;;;;26.70;24.88;;;;;;;;;;5061507;28;20059;-74
2023/12/26 14:47:11;;;;;;;10.43;9.27;;;;;;;;;;5061638;28;20526;-75
2023/12/26 14:49:42;;;;;;;13.10;12.32;;;;;;;;;;5061624;28;20055;-74
2023/12/26 14:52:13;;;;;;;18.70;17.50;;;;;;;;;;5062303;28;20036;-74
2023/12/26 14:54:43;;;;;;;22.15;20.50;;;;;;;;;;5062467;28;20048;-76
2023/12/26 14:57:50;;;;;;;24.23;22.50;;;;;;;;;;5061670;28;20055;-75
2023/12/26 15:00:58;;;;;;;29.20;27.10;;;;;;;;;;5061850;28;20067;-75
2023/12/26 15:03:32;;;;;;;21.85;20.05;;;;;;;;;;5061867;28;20055;-75
2023/12/26 15:06:03;;;;;;;31.10;28.75;;;;;;;;;;5061459;28;20052;-75
2023/12/26 15:08:33;;;;;;;24.30;22.63;;;;;;;;;;5061543;28;20056;-74
2023/12/26 15:11:05;;;;;;;18.83;17.60;;;;;;;;;;5060876;28;20048;-77
2023/12/26 15:13:36;;;;;;;18.80;17.58;;;;;;;;;;5061260;28;20051;-75
2023/12/26 15:16:20;;;;;;;22.08;20.52;;;;;;;;;;5060982;28;20055;-75
2023/12/26 15:18:50;;;;;;;25.80;24.05;;;;;;;;;;5061949;28;20055;-75
2023/12/26 15:21:21;;;;;;;30.80;28.77;;;;;;;;;;5060367;28;20060;-75
2023/12/26 15:23:52;;;;;;;22.70;20.95;;;;;;;;;;5061346;28;20036;-75
2023/12/26 15:26:22;;;;;;;23.55;22.00;;;;;;;;;;5062622;28;20064;-75
2023/12/26 15:28:52;;;;;;;14.65;13.13;;;;;;;;;;5061618;28;20434;-76
2023/12/26 15:31:22;;;;;;;13.45;12.25;;;;;;;;;;5062837;28;20044;-76
2023/12/26 15:33:55;;;;;;;18.23;17.10;;;;;;;;;;5062894;28;20529;-80
2023/12/26 15:36:26;;;;;;;14.10;13.15;;;;;;;;;;5061426;28;20040;-76
2023/12/26 15:38:56;;;;;;;13.27;12.40;;;;;;;;;;5062526;28;20472;-74
2023/12/26 15:41:28;;;;;;;13.75;12.80;;;;;;;;;;5060851;28;20049;-77
2023/12/26 15:43:58;;;;;;;15.63;14.60;;;;;;;;;;5061474;28;20041;-75
2023/12/26 15:46:30;;;;;;;18.40;17.00;;;;;;;;;;5061784;28;20412;-75
2023/12/26 15:49:00;;;;;;;15.73;14.80;;;;;;;;;;5060955;28;20053;-76
2023/12/26 15:51:31;;;;;;;20.48;18.80;;;;;;;;;;5060694;28;20454;-75
2023/12/26 15:54:04;;;;;;;21.88;20.15;;;;;;;;;;5061125;28;20119;-74
2023/12/26 15:56:34;;;;;;;25.55;23.67;;;;;;;;;;5061022;28;20060;-75
2023/12/26 15:59:05;;;;;;;22.13;20.50;;;;;;;;;;5061329;28;20411;-78
2023/12/26 16:01:36;;;;;;;22.27;20.65;;;;;;;;;;5060126;28;20049;-80
2023/12/26 16:04:07;;;;;;;18.35;16.83;;;;;;;;;;5061431;28;20537;-76
2023/12/26 16:06:37;;;;;;;19.35;18.05;;;;;;;;;;5061303;28;20051;-75
2023/12/26 16:09:08;;;;;;;17.60;16.10;;;;;;;;;;5059644;28;20099;-76
2023/12/26 16:11:39;;;;;;;16.02;14.70;;;;;;;;;;5061148;28;20052;-75
2023/12/26 16:14:09;;;;;;;19.33;17.83;;;;;;;;;;5061508;28;20072;-76
2023/12/26 16:16:41;;;;;;;35.25;32.55;;;;;;;;;;5061184;28;20059;-76
2023/12/26 16:19:11;;;;;;;18.02;16.75;;;;;;;;;;5061067;28;20441;-75
2023/12/26 16:21:42;;;;;;;31.75;29.58;;;;;;;;;;5061384;28;20063;-75
2023/12/26 16:24:13;;;;;;;14.60;13.43;;;;;;;;;;5064310;28;20076;-76
2023/12/26 16:26:46;;;;;;;24.58;22.83;;;;;;;;;;5064656;28;20067;-76
2023/12/26 16:29:18;;;;;;;20.42;19.10;;;;;;;;;;5064504;28;20498;-74
2023/12/26 16:31:48;;;;;;;20.58;19.25;;;;;;;;;;5064436;28;20052;-76
2023/12/26 16:34:19;;;;;;;19.83;18.58;;;;;;;;;;5064095;28;20072;-76
2023/12/26 16:36:49;;;;;;;15.88;14.88;;;;;;;;;;5064646;28;20048;-75
2023/12/26 16:39:20;;;;;;;17.45;16.42;;;;;;;;;;5063950;28;20052;-75
2023/12/26 16:42:07;;;;;;;20.48;18.90;;;;;;;;;;5062956;28;20049;-74
2023/12/26 16:44:47;;;;;;;21.35;19.95;;;;;;;;;;5064187;28;20048;-76
2023/12/26 16:47:18;;;;;;;22.55;21.05;;;;;;;;;;5064678;28;20063;-76
2023/12/26 16:49:48;;;;;;;20.30;18.77;;;;;;;;;;5064427;28;20056;-75
2023/12/26 16:52:19;;;;;;;19.83;18.05;;;;;;;;;;5064259;28;20049;-75
2023/12/26 16:54:51;;;;;;;22.52;20.95;;;;;;;;;;5065142;28;20521;-75
2023/12/26 16:57:22;;;;;;;26.83;24.73;;;;;;;;;;5063943;28;20055;-75
2023/12/26 16:59:53;;;;;;;27.80;25.85;;;;;;;;;;5063569;28;20055;-74
2023/12/26 17:02:24;;;;;;;20.88;19.27;;;;;;;;;;5063614;28;20053;-74
2023/12/26 17:04:54;;;;;;;18.52;16.88;;;;;;;;;;5063951;28;20040;-75
2023/12/26 17:07:25;;;;;;;23.77;22.27;;;;;;;;;;5062591;28;20041;-75
2023/12/26 17:09:55;;;;;;;33.45;31.00;;;;;;;;;;5063518;28;20048;-74
2023/12/26 17:12:26;;;;;;;25.58;23.98;;;;;;;;;;5064212;28;20060;-76
2023/12/26 17:14:57;;;;;;;21.20;19.80;;;;;;;;;;5063343;28;20055;-75
2023/12/26 17:17:28;;;;;;;26.65;24.63;;;;;;;;;;5063223;28;20059;-75
2023/12/26 17:20:00;;;;;;;20.05;18.75;;;;;;;;;;5064152;28;20586;-78
2023/12/26 17:22:30;;;;;;;21.13;19.70;;;;;;;;;;5063709;28;20051;-75
2023/12/26 17:25:00;;;;;;;25.80;24.08;;;;;;;;;;5064625;28;20079;-76
2023/12/26 17:27:31;;;;;;;23.98;22.33;;;;;;;;;;5064281;28;20040;-76
2023/12/26 17:30:03;;;;;;;15.30;14.10;;;;;;;;;;5063095;28;20060;-76
2023/12/26 17:32:34;;;;;;;24.80;23.13;;;;;;;;;;5063610;28;20055;-74
2023/12/26 17:35:06;;;;;;;22.40;20.60;;;;;;;;;;5063752;28;20055;-75
2023/12/26 17:37:36;;;;;;;14.75;13.52;;;;;;;;;;5063070;28;20063;-74
2023/12/26 17:40:11;;;;;;;44.78;40.95;;;;;;;;;;5063396;28;20040;-75
2023/12/26 17:42:42;;;;;;;18.13;16.98;;;;;;;;;;5062326;28;20056;-76